Campbellton, Texas
Current Conditions -  °F | °C
As of 8:35 PM on Wednesday 22 Oct 2014 (Local Time) from KPEZ Reporting Station
Clear Clear  
Wind Chill: 75°   Ceiling: Unl
Heat Index: 75°   Visibility: 10mi
Dew Point: 56°   Wind: 3mph
Humidity: 50%   Direction: 70°ENE
Pressure: 30.05"   Gusts: NA
Location:  28.75°N, 98.3°W
Report Text: KPEZ 230135Z AUTO 07003KT 10SM CLR 24/13 A3005 RMK AO2 T02410132
Loading
Personal Weather Stations






























Interactive Weather Map
Tropical Storm Tracking
New forecast layout! Learn more

10-Day Weather Forecast

Advertisements
Track Severe Weather on mobile